Time;durP1;ratioP1;P1;durP2;ratioP2;P2;SDS_P1;SDS_P2;PMS_P1;PMS_P2;Temp;Humidity;BMP_temperature;BMP_pressure;BME280_temperature;BME280_humidity;BME280_pressure;Samples;Min_cycle;Max_cycle;Signal;HPM_P1;HPM_P2
2022/03/24 00:01:08;;;;;;;6.32;1.58;;;;;;;;;;4912887;29;20048;-70
2022/03/24 00:03:38;;;;;;;4.03;1.40;;;;;;;;;;4893808;29;20056;-67
2022/03/24 00:06:09;;;;;;;4.07;1.58;;;;;;;;;;4931651;28;20048;-69
2022/03/24 00:08:39;;;;;;;4.13;1.20;;;;;;;;;;4931527;29;20520;-70
2022/03/24 00:11:10;;;;;;;5.35;2.60;;;;;;;;;;4941392;28;20459;-69
2022/03/24 00:13:40;;;;;;;17.90;8.48;;;;;;;;;;4950390;28;20084;-70
2022/03/24 00:16:10;;;;;;;15.70;6.25;;;;;;;;;;4950665;28;20523;-70
2022/03/24 00:18:40;;;;;;;8.27;2.75;;;;;;;;;;4927814;28;20069;-69
2022/03/24 00:21:12;;;;;;;6.55;1.75;;;;;;;;;;5000554;28;20422;-70
2022/03/24 00:23:44;;;;;;;7.28;4.30;;;;;;;;;;5011686;28;20041;-70
2022/03/24 00:26:14;;;;;;;13.65;3.90;;;;;;;;;;5008882;28;20060;-69
2022/03/24 00:28:45;;;;;;;4.75;1.70;;;;;;;;;;4976020;28;20057;-69
2022/03/24 00:31:16;;;;;;;8.48;5.90;;;;;;;;;;5008766;28;20058;-70
2022/03/24 00:33:46;;;;;;;5.93;1.40;;;;;;;;;;4988618;28;20053;-70
2022/03/24 00:36:17;;;;;;;5.78;1.75;;;;;;;;;;4972609;28;20568;-69
2022/03/24 00:38:53;;;;;;;5.10;1.90;;;;;;;;;;4975949;28;20053;-69
2022/03/24 00:41:23;;;;;;;3.83;1.92;;;;;;;;;;5008468;28;20057;-70
2022/03/24 00:43:55;;;;;;;3.35;1.80;;;;;;;;;;4997841;28;20053;-69
2022/03/24 00:46:25;;;;;;;5.45;1.70;;;;;;;;;;4988625;28;20050;-70
2022/03/24 00:48:56;;;;;;;5.05;2.03;;;;;;;;;;5005087;28;20057;-69
2022/03/24 00:51:26;;;;;;;5.00;1.75;;;;;;;;;;4978227;28;20050;-70
2022/03/24 00:53:57;;;;;;;6.43;1.58;;;;;;;;;;4969684;28;20046;-70
2022/03/24 00:56:27;;;;;;;2.95;1.77;;;;;;;;;;4969170;28;20059;-69
2022/03/24 00:58:57;;;;;;;6.22;1.80;;;;;;;;;;4969045;28;20539;-69
2022/03/24 01:01:27;;;;;;;2.92;1.52;;;;;;;;;;4953076;28;20083;-69
2022/03/24 01:03:59;;;;;;;4.13;1.45;;;;;;;;;;4972825;28;20061;-70
2022/03/24 01:06:29;;;;;;;3.42;1.60;;;;;;;;;;4988825;28;20061;-70
2022/03/24 01:09:05;;;;;;;2.80;1.50;;;;;;;;;;4988688;28;20043;-69
2022/03/24 01:11:35;;;;;;;4.10;1.60;;;;;;;;;;5010922;28;20413;-70
2022/03/24 01:14:05;;;;;;;3.97;1.60;;;;;;;;;;5051166;28;20063;-69
2022/03/24 01:16:36;;;;;;;4.10;1.65;;;;;;;;;;5071585;28;20052;-69
2022/03/24 01:19:08;;;;;;;4.20;1.20;;;;;;;;;;5071408;28;20059;-71
2022/03/24 01:21:39;;;;;;;3.15;1.40;;;;;;;;;;5088176;28;20056;-70
2022/03/24 01:24:09;;;;;;;4.50;1.38;;;;;;;;;;5088047;28;20427;-69
2022/03/24 01:26:39;;;;;;;4.53;1.15;;;;;;;;;;5088052;28;20086;-70
2022/03/24 01:29:11;;;;;;;4.70;1.55;;;;;;;;;;5054237;28;20044;-70
2022/03/24 01:31:42;;;;;;;7.85;1.50;;;;;;;;;;5088109;28;20103;-71
2022/03/24 01:34:16;;;;;;;5.60;1.50;;;;;;;;;;5067469;28;20170;-70
2022/03/24 01:36:47;;;;;;;2.13;1.30;;;;;;;;;;5047406;28;20056;-70
2022/03/24 01:39:17;;;;;;;3.35;1.70;;;;;;;;;;5047390;28;20049;-70
2022/03/24 01:41:50;;;;;;;3.67;1.30;;;;;;;;;;5047683;28;20068;-70
2022/03/24 01:44:21;;;;;;;2.25;1.25;;;;;;;;;;5048311;28;20509;-69
2022/03/24 01:46:56;;;;;;;3.75;1.33;;;;;;;;;;5051609;28;20064;-69
2022/03/24 01:49:29;;;;;;;5.82;1.60;;;;;;;;;;5051312;28;20061;-69
2022/03/24 01:52:00;;;;;;;3.75;1.35;;;;;;;;;;5031016;28;20828;-68
2022/03/24 01:54:32;;;;;;;3.55;1.38;;;;;;;;;;4998811;28;20053;-69
2022/03/24 01:57:04;;;;;;;4.72;1.55;;;;;;;;;;5031148;28;20841;-68
2022/03/24 01:59:38;;;;;;;4.40;1.70;;;;;;;;;;5030641;28;20053;-69
2022/03/24 02:02:10;;;;;;;7.28;1.60;;;;;;;;;;4983890;28;20057;-68
2022/03/24 02:04:40;;;;;;;;;;;;;;;;;;5011477;28;20057;-68
2022/03/24 02:07:13;;;;;;;3.20;1.50;;;;;;;;;;5011028;28;19921;-68
2022/03/24 02:09:45;;;;;;;6.78;1.88;;;;;;;;;;4991147;28;20062;-68
2022/03/24 02:12:19;;;;;;;4.00;1.70;;;;;;;;;;4991338;28;20062;-68
2022/03/24 02:14:49;;;;;;;9.65;1.92;;;;;;;;;;4991000;28;20058;-69
2022/03/24 02:17:19;;;;;;;4.43;1.70;;;;;;;;;;4958892;28;20054;-69
2022/03/24 02:19:50;;;;;;;8.85;1.77;;;;;;;;;;4994390;28;20042;-69
2022/03/24 02:22:20;;;;;;;4.95;1.75;;;;;;;;;;4971423;28;20061;-69
2022/03/24 02:24:51;;;;;;;4.07;1.50;;;;;;;;;;4971856;28;20055;-69
2022/03/24 02:27:23;;;;;;;10.13;1.70;;;;;;;;;;4971726;28;20062;-69
2022/03/24 02:29:54;;;;;;;4.55;2.00;;;;;;;;;;4950852;28;20418;-69
2022/03/24 02:32:24;;;;;;;4.60;1.83;;;;;;;;;;4991320;28;20074;-69
2022/03/24 02:34:55;;;;;;;5.45;1.83;;;;;;;;;;4990850;28;20131;-69
2022/03/24 02:37:28;;;;;;;5.78;1.90;;;;;;;;;;4979450;28;20533;-70
2022/03/24 02:40:00;;;;;;;8.95;2.00;;;;;;;;;;4971446;28;20061;-69
2022/03/24 02:42:32;;;;;;;4.88;1.90;;;;;;;;;;4982646;28;20412;-69
2022/03/24 02:45:07;;;;;;;4.90;1.83;;;;;;;;;;5002161;28;20061;-66
2022/03/24 02:47:37;;;;;;;9.27;2.05;;;;;;;;;;5010585;28;20054;-65
2022/03/24 02:50:09;;;;;;;7.65;2.10;;;;;;;;;;5010765;28;20073;-65
2022/03/24 02:52:39;;;;;;;4.13;1.75;;;;;;;;;;5022770;28;20066;-65
2022/03/24 02:55:10;;;;;;;6.78;2.05;;;;;;;;;;5073818;28;20051;-65
2022/03/24 02:57:40;;;;;;;6.32;2.30;;;;;;;;;;5091734;28;20725;-66
2022/03/24 03:00:11;;;;;;;6.90;1.83;;;;;;;;;;5092568;28;20048;-66
2022/03/24 03:02:42;;;;;;;9.07;2.28;;;;;;;;;;5092922;28;20047;-65
2022/03/24 03:05:12;;;;;;;7.10;1.88;;;;;;;;;;5092894;28;20044;-66
2022/03/24 03:07:42;;;;;;;3.92;2.00;;;;;;;;;;5092654;28;20051;-66
2022/03/24 03:10:13;;;;;;;8.43;2.05;;;;;;;;;;5092773;28;20511;-66
2022/03/24 03:12:44;;;;;;;4.70;2.08;;;;;;;;;;5092678;28;20044;-67
2022/03/24 03:15:15;;;;;;;6.07;2.22;;;;;;;;;;5092421;28;20040;-70
2022/03/24 03:17:45;;;;;;;10.38;3.30;;;;;;;;;;5073324;28;20051;-71
2022/03/24 03:20:15;;;;;;;6.80;2.70;;;;;;;;;;5056898;28;20064;-69
2022/03/24 03:22:46;;;;;;;7.18;2.30;;;;;;;;;;5092269;28;20048;-71
2022/03/24 03:25:16;;;;;;;4.90;2.33;;;;;;;;;;5089488;28;20052;-68
2022/03/24 03:27:47;;;;;;;7.38;2.15;;;;;;;;;;5007635;28;20056;-67
2022/03/24 03:30:17;;;;;;;7.28;2.80;;;;;;;;;;5069366;28;20566;-67
2022/03/24 03:32:47;;;;;;;5.88;2.85;;;;;;;;;;5069710;28;20057;-68
2022/03/24 03:35:18;;;;;;;5.55;2.40;;;;;;;;;;5028980;28;20046;-68
2022/03/24 03:37:49;;;;;;;4.47;2.72;;;;;;;;;;5029536;28;20445;-67
2022/03/24 03:40:19;;;;;;;7.18;2.88;;;;;;;;;;5029431;28;20064;-66
2022/03/24 03:42:51;;;;;;;9.75;3.22;;;;;;;;;;5013515;28;20441;-66
2022/03/24 03:45:21;;;;;;;6.60;2.60;;;;;;;;;;4996517;28;20737;-66
2022/03/24 03:47:52;;;;;;;10.07;2.63;;;;;;;;;;5029195;28;20068;-66
2022/03/24 03:50:23;;;;;;;5.30;2.92;;;;;;;;;;4980260;28;20053;-65
2022/03/24 03:52:53;;;;;;;6.72;2.53;;;;;;;;;;5029070;28;20060;-66
2022/03/24 03:55:23;;;;;;;7.15;2.92;;;;;;;;;;5027816;28;20164;-69
2022/03/24 03:57:55;;;;;;;6.97;2.78;;;;;;;;;;4989104;28;20054;-70
2022/03/24 04:03:14;;;;;;;9.00;2.90;;;;;;;;;;4989750;28;20078;-73
2022/03/24 04:05:44;;;;;;;9.50;2.85;;;;;;;;;;4989764;28;20637;-71
2022/03/24 04:08:15;;;;;;;9.10;2.92;;;;;;;;;;4958935;28;20498;-74
2022/03/24 04:10:45;;;;;;;6.65;2.63;;;;;;;;;;4989527;28;20062;-73
2022/03/24 04:13:18;;;;;;;6.57;2.88;;;;;;;;;;5001821;28;20069;-69
2022/03/24 04:15:50;;;;;;;12.73;2.88;;;;;;;;;;4992644;28;20050;-72
2022/03/24 04:18:24;;;;;;;7.03;2.78;;;;;;;;;;5009095;28;20064;-69
2022/03/24 04:20:56;;;;;;;7.63;2.47;;;;;;;;;;5008763;28;20069;-71
2022/03/24 04:23:26;;;;;;;7.78;2.75;;;;;;;;;;5008969;28;20724;-71
2022/03/24 04:25:56;;;;;;;6.20;2.40;;;;;;;;;;4992441;28;20062;-71
2022/03/24 04:28:26;;;;;;;4.95;2.90;;;;;;;;;;5009114;28;20061;-71
2022/03/24 04:30:57;;;;;;;7.95;3.20;;;;;;;;;;5008619;28;20064;-66
2022/03/24 04:33:27;;;;;;;8.77;2.55;;;;;;;;;;5014746;28;20052;-65
2022/03/24 04:35:58;;;;;;;9.15;2.67;;;;;;;;;;5048333;28;20095;-65
2022/03/24 04:38:29;;;;;;;7.20;2.10;;;;;;;;;;5048440;28;20390;-67
2022/03/24 04:40:59;;;;;;;4.70;2.28;;;;;;;;;;5048253;28;20050;-69
2022/03/24 04:43:30;;;;;;;11.23;2.15;;;;;;;;;;4999175;28;20052;-71
2022/03/24 04:46:00;;;;;;;6.80;2.03;;;;;;;;;;5081170;28;20062;-66
2022/03/24 04:48:36;;;;;;;5.07;2.40;;;;;;;;;;5108912;28;20056;-73
2022/03/24 04:51:07;;;;;;;6.25;2.42;;;;;;;;;;5108938;28;20150;-73
2022/03/24 04:53:37;;;;;;;7.65;2.00;;;;;;;;;;5074993;28;20058;-70
2022/03/24 04:56:08;;;;;;;5.38;1.85;;;;;;;;;;5108597;28;20055;-73
2022/03/24 04:58:39;;;;;;;5.55;1.70;;;;;;;;;;5108324;28;20056;-73
2022/03/24 05:01:13;;;;;;;5.53;2.15;;;;;;;;;;5074813;28;20094;-72
2022/03/24 05:03:46;;;;;;;5.63;2.33;;;;;;;;;;5075698;28;20055;-71
2022/03/24 05:06:17;;;;;;;8.40;2.20;;;;;;;;;;5108558;28;20046;-71
2022/03/24 05:08:47;;;;;;;7.88;2.72;;;;;;;;;;5067759;28;20045;-70
2022/03/24 05:11:18;;;;;;;8.50;2.42;;;;;;;;;;5051025;28;20433;-71
2022/03/24 05:13:48;;;;;;;5.45;1.55;;;;;;;;;;5047781;28;20057;-70
2022/03/24 05:16:18;;;;;;;5.45;2.00;;;;;;;;;;5048184;28;20053;-70
2022/03/24 05:18:49;;;;;;;5.38;1.92;;;;;;;;;;5048249;28;20539;-70
2022/03/24 05:21:19;;;;;;;5.72;2.10;;;;;;;;;;5031829;28;20053;-72
2022/03/24 05:23:50;;;;;;;4.80;1.90;;;;;;;;;;5015582;28;20057;-67
2022/03/24 05:26:24;;;;;;;8.57;2.17;;;;;;;;;;4992277;28;20047;-69
2022/03/24 05:28:55;;;;;;;8.82;1.95;;;;;;;;;;4960223;28;20054;-70
2022/03/24 05:31:26;;;;;;;7.47;2.03;;;;;;;;;;4953520;28;20055;-70
2022/03/24 05:33:56;;;;;;;7.28;3.03;;;;;;;;;;4953588;28;20059;-67
2022/03/24 05:36:26;;;;;;;7.75;2.05;;;;;;;;;;4953601;28;20055;-66
2022/03/24 05:38:58;;;;;;;6.55;2.20;;;;;;;;;;4953680;28;20067;-69
2022/03/24 05:41:30;;;;;;;4.03;2.35;;;;;;;;;;4953603;28;20519;-69
2022/03/24 05:44:03;;;;;;;5.25;2.78;;;;;;;;;;4953333;28;20055;-70
2022/03/24 05:46:45;;;;;;;4.07;1.92;;;;;;;;;;4965100;28;20559;-70
2022/03/24 05:49:19;;;;;;;9.98;1.90;;;;;;;;;;4972706;28;20874;-63
2022/03/24 05:51:52;;;;;;;7.28;2.13;;;;;;;;;;4970100;28;20053;-64
2022/03/24 05:54:22;;;;;;;5.00;2.15;;;;;;;;;;4992204;28;20054;-66
2022/03/24 05:56:53;;;;;;;9.43;1.92;;;;;;;;;;4996725;28;20058;-64
2022/03/24 05:59:23;;;;;;;7.72;2.13;;;;;;;;;;5001595;28;20064;-65
2022/03/24 06:01:54;;;;;;;7.43;1.75;;;;;;;;;;5002571;28;20052;-72
2022/03/24 06:04:25;;;;;;;7.90;1.70;;;;;;;;;;5031102;28;20050;-73
2022/03/24 06:06:58;;;;;;;5.43;1.92;;;;;;;;;;5031166;28;20057;-72
2022/03/24 06:09:29;;;;;;;7.13;2.13;;;;;;;;;;4998883;28;20053;-70
2022/03/24 06:12:00;;;;;;;6.80;1.85;;;;;;;;;;5031224;28;20065;-67
2022/03/24 06:14:31;;;;;;;3.83;1.92;;;;;;;;;;4982257;28;20525;-66
2022/03/24 06:17:01;;;;;;;6.82;1.85;;;;;;;;;;5030823;28;20065;-69
2022/03/24 06:19:35;;;;;;;7.30;1.83;;;;;;;;;;5031376;28;20497;-73
2022/03/24 06:22:07;;;;;;;4.72;2.05;;;;;;;;;;5044692;28;20517;-71
2022/03/24 06:24:38;;;;;;;5.00;1.70;;;;;;;;;;5001549;28;20049;-72
2022/03/24 06:27:08;;;;;;;10.95;1.80;;;;;;;;;;5010872;28;20050;-73
2022/03/24 06:29:39;;;;;;;5.95;1.90;;;;;;;;;;4978450;28;20101;-74
2022/03/24 06:32:10;;;;;;;5.35;1.88;;;;;;;;;;4990797;28;20534;-73
2022/03/24 06:34:40;;;;;;;5.93;1.70;;;;;;;;;;4991254;28;20506;-74
2022/03/24 06:37:10;;;;;;;5.55;1.60;;;;;;;;;;4965306;28;20076;-74
2022/03/24 06:39:41;;;;;;;4.45;1.55;;;;;;;;;;5030732;28;20651;-74
2022/03/24 06:42:11;;;;;;;7.38;2.35;;;;;;;;;;5041905;28;20057;-74
2022/03/24 06:44:42;;;;;;;5.22;1.73;;;;;;;;;;5050509;28;20056;-69
2022/03/24 06:47:13;;;;;;;3.30;1.60;;;;;;;;;;5050530;28;20480;-71
2022/03/24 06:49:46;;;;;;;4.13;1.75;;;;;;;;;;5033702;28;20049;-71
2022/03/24 06:52:16;;;;;;;5.38;1.55;;;;;;;;;;5050171;28;20204;-66
2022/03/24 06:54:46;;;;;;;5.85;1.90;;;;;;;;;;5050330;28;20045;-65
2022/03/24 06:57:16;;;;;;;3.70;1.73;;;;;;;;;;4977324;28;20066;-66
2022/03/24 06:59:47;;;;;;;2.50;1.23;;;;;;;;;;4962217;28;20085;-67
2022/03/24 07:02:17;;;;;;;3.63;1.42;;;;;;;;;;5026438;28;20438;-69
2022/03/24 07:04:54;;;;;;;4.75;1.65;;;;;;;;;;5026798;28;21128;-72
2022/03/24 07:07:27;;;;;;;4.30;1.50;;;;;;;;;;5010275;28;20050;-66
2022/03/24 07:09:58;;;;;;;3.70;1.45;;;;;;;;;;5032332;28;20060;-73
2022/03/24 07:12:28;;;;;;;3.13;1.20;;;;;;;;;;5049870;28;20057;-68
2022/03/24 07:14:58;;;;;;;6.78;1.67;;;;;;;;;;5033719;28;20061;-67
2022/03/24 07:17:28;;;;;;;4.03;1.42;;;;;;;;;;5050069;28;20049;-70
2022/03/24 07:19:58;;;;;;;3.33;1.42;;;;;;;;;;5033139;28;20068;-70
2022/03/24 07:22:35;;;;;;;2.70;1.30;;;;;;;;;;5000129;28;20056;-66
2022/03/24 07:25:07;;;;;;;4.72;1.33;;;;;;;;;;5049887;28;20052;-67
2022/03/24 07:27:37;;;;;;;;;;;;;;;;;;5016930;28;20060;-69
2022/03/24 07:30:09;;;;;;;4.75;1.02;;;;;;;;;;5049684;28;19921;-67
2022/03/24 07:32:43;;;;;;;6.32;1.63;;;;;;;;;;5049540;28;20102;-69
2022/03/24 07:35:15;;;;;;;3.08;1.63;;;;;;;;;;5041736;28;20052;-70
2022/03/24 07:37:50;;;;;;;4.13;1.70;;;;;;;;;;5089515;28;20051;-70
2022/03/24 07:40:22;;;;;;;2.53;1.13;;;;;;;;;;5049062;28;20512;-69
2022/03/24 07:42:53;;;;;;;4.15;1.35;;;;;;;;;;5031868;28;20501;-70
2022/03/24 07:45:26;;;;;;;2.53;1.30;;;;;;;;;;5033265;28;20053;-72
2022/03/24 07:48:17;;;;;;;8.10;1.23;;;;;;;;;;4987873;28;20053;-70
2022/03/24 07:50:49;;;;;;;2.40;0.93;;;;;;;;;;5069451;28;20111;-72
2022/03/24 07:53:33;;;;;;;4.75;1.88;;;;;;;;;;5069141;28;20439;-74
2022/03/24 07:56:04;;;;;;;3.75;1.40;;;;;;;;;;5034319;28;20048;-74
2022/03/24 07:58:36;;;;;;;5.65;1.38;;;;;;;;;;5048811;28;20100;-73
2022/03/24 08:01:07;;;;;;;5.45;1.73;;;;;;;;;;5049178;28;20515;-71
2022/03/24 08:03:38;;;;;;;4.30;1.30;;;;;;;;;;5015953;28;20041;-73
2022/03/24 08:06:09;;;;;;;5.38;1.50;;;;;;;;;;5048900;28;20072;-67
2022/03/24 08:08:39;;;;;;;3.92;1.30;;;;;;;;;;5048764;28;20056;-69
2022/03/24 08:11:09;;;;;;;2.88;0.73;;;;;;;;;;5015763;28;20153;-72
2022/03/24 08:13:39;;;;;;;1.52;0.65;;;;;;;;;;5048813;28;20067;-69
2022/03/24 08:16:09;;;;;;;1.75;0.52;;;;;;;;;;5048818;28;20044;-72
2022/03/24 08:18:41;;;;;;;2.28;0.80;;;;;;;;;;5048523;28;20052;-67
2022/03/24 08:21:11;;;;;;;16.13;7.43;;;;;;;;;;5048679;28;20056;-66
2022/03/24 08:23:43;;;;;;;2.35;0.50;;;;;;;;;;5048532;28;20048;-69
2022/03/24 08:26:14;;;;;;;0.73;0.10;;;;;;;;;;5048439;28;20497;-64
2022/03/24 08:28:45;;;;;;;1.05;0.57;;;;;;;;;;5031167;28;20048;-64
2022/03/24 08:31:16;;;;;;;0.40;0.20;;;;;;;;;;5048618;28;20048;-62
2022/03/24 08:33:46;;;;;;;0.10;0.10;;;;;;;;;;5071106;28;20447;-63
2022/03/24 08:36:16;;;;;;;9.73;0.30;;;;;;;;;;5091117;28;20043;-67
2022/03/24 08:38:47;;;;;;;3.50;0.40;;;;;;;;;;5039350;28;20059;-60
2022/03/24 08:41:18;;;;;;;1.42;0.43;;;;;;;;;;5068173;28;20842;-62
2022/03/24 08:43:48;;;;;;;2.95;0.43;;;;;;;;;;5068261;28;20475;-62
2022/03/24 08:46:24;;;;;;;0.80;0.10;;;;;;;;;;5068423;28;20056;-62
2022/03/24 08:48:55;;;;;;;0.75;0.10;;;;;;;;;;5068323;28;20059;-62
2022/03/24 08:51:27;;;;;;;2.78;0.40;;;;;;;;;;5068297;28;20067;-61
2022/03/24 08:53:58;;;;;;;0.77;0.17;;;;;;;;;;5017571;28;20052;-62
2022/03/24 08:56:28;;;;;;;0.88;0.20;;;;;;;;;;5068166;28;20051;-64
2022/03/24 09:04:11;;;;;;;2.28;0.38;;;;;;;;;;5069930;28;20415;-66
2022/03/24 09:06:42;;;;;;;2.80;0.73;;;;;;;;;;5069446;28;20047;-67
2022/03/24 09:09:11;;;;;;;12.98;1.33;;;;;;;;;;5067247;28;20045;-68
2022/03/24 09:11:42;;;;;;;2.22;0.35;;;;;;;;;;5067366;28;20096;-66
2022/03/24 09:14:12;;;;;;;0.20;0.10;;;;;;;;;;5067485;28;20538;-65
2022/03/24 09:16:44;;;;;;;0.77;0.50;;;;;;;;;;5050605;28;20052;-68
2022/03/24 09:19:17;;;;;;;0.82;0.40;;;;;;;;;;5066909;28;20040;-66
2022/03/24 09:21:47;;;;;;;0.43;0.10;;;;;;;;;;5051080;28;20052;-66
2022/03/24 09:24:18;;;;;;;0.30;0.28;;;;;;;;;;5087144;28;20055;-67
2022/03/24 09:26:48;;;;;;;1.05;0.10;;;;;;;;;;5066515;28;20079;-68
2022/03/24 09:29:18;;;;;;;0.30;0.20;;;;;;;;;;5067223;28;20083;-65
2022/03/24 09:31:50;;;;;;;2.05;0.52;;;;;;;;;;5050660;28;20071;-67
2022/03/24 09:34:21;;;;;;;1.27;0.25;;;;;;;;;;5050422;28;20057;-67
2022/03/24 09:36:51;;;;;;;0.80;0.32;;;;;;;;;;5026668;28;20559;-68
2022/03/24 09:39:21;;;;;;;4.65;0.30;;;;;;;;;;5026510;28;20061;-66
2022/03/24 09:41:53;;;;;;;2.33;0.43;;;;;;;;;;5026959;28;20041;-67
2022/03/24 09:44:24;;;;;;;1.27;0.43;;;;;;;;;;4954755;28;20506;-66
2022/03/24 09:46:55;;;;;;;10.57;0.80;;;;;;;;;;4976958;28;20051;-67
2022/03/24 09:49:27;;;;;;;1.65;0.25;;;;;;;;;;4948361;28;20060;-66
2022/03/24 09:51:57;;;;;;;0.85;0.32;;;;;;;;;;4917090;29;20060;-68
2022/03/24 09:54:28;;;;;;;1.70;0.50;;;;;;;;;;4948652;29;20074;-66
2022/03/24 09:57:04;;;;;;;3.47;0.38;;;;;;;;;;4938681;28;20416;-68
2022/03/24 09:59:34;;;;;;;1.65;0.30;;;;;;;;;;4929539;29;20052;-66
2022/03/24 10:02:07;;;;;;;2.90;0.32;;;;;;;;;;4929317;29;20048;-68
2022/03/24 10:05:00;;;;;;;2.10;0.60;;;;;;;;;;4951989;28;20063;-66
2022/03/24 10:07:48;;;;;;;2.30;0.38;;;;;;;;;;4967802;28;20051;-67
2022/03/24 10:10:27;;;;;;;0.82;0.55;;;;;;;;;;4967789;28;20414;-69
2022/03/24 10:12:58;;;;;;;1.45;0.40;;;;;;;;;;4967598;28;20055;-67
2022/03/24 10:15:28;;;;;;;3.05;0.88;;;;;;;;;;4972873;28;20506;-65
2022/03/24 10:18:00;;;;;;;1.58;0.35;;;;;;;;;;4962778;28;20155;-66
2022/03/24 10:20:33;;;;;;;9.63;3.05;;;;;;;;;;4996554;28;20054;-68
2022/03/24 10:23:07;;;;;;;8.85;2.25;;;;;;;;;;5049278;28;20098;-66
2022/03/24 10:25:42;;;;;;;7.45;1.60;;;;;;;;;;5052642;28;20488;-68
2022/03/24 10:28:21;;;;;;;5.63;3.47;;;;;;;;;;5052651;28;20431;-66
2022/03/24 10:30:54;;;;;;;;;;;;;;;;;;5052614;28;20073;-70
2022/03/24 10:33:30;;;;;;;2.78;1.08;;;;;;;;;;5052552;28;20439;-66
2022/03/24 10:36:13;;;;;;;2.10;1.20;;;;;;;;;;5032214;28;20061;-67
2022/03/24 10:38:47;;;;;;;1.77;0.30;;;;;;;;;;4983761;28;20505;-65
2022/03/24 10:41:22;;;;;;;0.35;0.10;;;;;;;;;;5012138;28;20916;-67
2022/03/24 10:43:55;;;;;;;0.70;0.10;;;;;;;;;;4980028;28;20054;-68
2022/03/24 10:46:28;;;;;;;3.95;1.10;;;;;;;;;;5012753;28;20070;-67
2022/03/24 10:49:14;;;;;;;1.55;0.38;;;;;;;;;;4992446;28;20050;-67
2022/03/24 10:51:46;;;;;;;0.10;0.10;;;;;;;;;;4973107;28;20054;-65
2022/03/24 10:54:35;;;;;;;0.90;0.40;;;;;;;;;;4973240;28;20059;-68
2022/03/24 10:57:13;;;;;;;0.77;0.15;;;;;;;;;;4973339;28;20066;-68
2022/03/24 10:59:48;;;;;;;1.10;0.20;;;;;;;;;;4992497;28;20066;-67
2022/03/24 11:02:19;;;;;;;0.90;0.20;;;;;;;;;;4976204;28;20050;-65
2022/03/24 11:04:51;;;;;;;0.47;0.10;;;;;;;;;;4921567;29;20043;-66
2022/03/24 11:07:28;;;;;;;0.90;0.10;;;;;;;;;;4906743;29;20055;-65
2022/03/24 11:09:59;;;;;;;1.30;0.22;;;;;;;;;;4953690;28;20071;-65
2022/03/24 11:12:38;;;;;;;6.43;0.60;;;;;;;;;;4952969;28;20086;-65
2022/03/24 11:15:09;;;;;;;0.68;0.22;;;;;;;;;;4934263;29;20062;-66
2022/03/24 11:17:40;;;;;;;2.92;0.45;;;;;;;;;;4921577;29;20047;-67
2022/03/24 11:20:25;;;;;;;1.98;0.40;;;;;;;;;;4934341;29;20517;-67
2022/03/24 11:23:00;;;;;;;1.42;0.40;;;;;;;;;;4933988;29;20062;-65
2022/03/24 11:25:31;;;;;;;1.70;0.40;;;;;;;;;;4934432;29;20066;-68
2022/03/24 11:28:11;;;;;;;1.88;0.32;;;;;;;;;;4937126;29;20047;-67
2022/03/24 11:30:42;;;;;;;1.27;0.38;;;;;;;;;;4972471;28;20051;-68
2022/03/24 11:33:14;;;;;;;1.15;0.73;;;;;;;;;;4991207;28;20405;-68
2022/03/24 11:35:44;;;;;;;2.50;0.38;;;;;;;;;;4991756;28;20054;-68
2022/03/24 11:38:15;;;;;;;1.52;0.30;;;;;;;;;;4952783;28;20055;-68
2022/03/24 11:40:46;;;;;;;3.70;1.70;;;;;;;;;;4952888;28;20100;-67
2022/03/24 11:43:19;;;;;;;4.55;1.33;;;;;;;;;;4933401;29;20048;-67
2022/03/24 11:45:49;;;;;;;4.28;1.70;;;;;;;;;;4911015;29;20059;-66
2022/03/24 11:48:35;;;;;;;1.90;0.80;;;;;;;;;;4861195;29;20106;-67
2022/03/24 11:51:20;;;;;;;2.20;0.40;;;;;;;;;;4877016;29;20053;-67
2022/03/24 11:54:02;;;;;;;1.00;0.65;;;;;;;;;;4796932;29;20071;-66
2022/03/24 11:56:34;;;;;;;0.60;0.40;;;;;;;;;;4858153;29;20060;-67
2022/03/24 11:59:06;;;;;;;1.05;0.20;;;;;;;;;;4876395;29;20056;-66
2022/03/24 12:01:37;;;;;;;1.05;0.28;;;;;;;;;;4876731;29;20513;-68
2022/03/24 12:04:14;;;;;;;1.45;0.30;;;;;;;;;;4876005;29;20599;-70
2022/03/24 12:06:48;;;;;;;0.63;0.45;;;;;;;;;;4859331;29;20065;-69
2022/03/24 12:09:25;;;;;;;1.10;0.47;;;;;;;;;;4841778;29;20058;-68
2022/03/24 12:12:04;;;;;;;1.10;0.50;;;;;;;;;;4841027;29;20054;-69
2022/03/24 12:14:36;;;;;;;;;;;;;;;;;;4855538;29;20057;-69
2022/03/24 12:17:28;;;;;;;1.38;0.40;;;;;;;;;;4854684;29;19924;-68
2022/03/24 12:20:00;;;;;;;1.27;0.60;;;;;;;;;;4876322;29;20057;-67
2022/03/24 12:22:32;;;;;;;2.03;1.13;;;;;;;;;;4878221;29;20518;-67
2022/03/24 12:25:08;;;;;;;1.35;0.68;;;;;;;;;;4895131;29;20048;-66
2022/03/24 12:28:20;;;;;;;1.40;1.08;;;;;;;;;;4896181;29;20052;-67
2022/03/24 12:31:06;;;;;;;2.10;0.80;;;;;;;;;;4898453;29;20079;-68
2022/03/24 12:33:47;;;;;;;10.05;5.00;;;;;;;;;;4893741;29;20071;-67
2022/03/24 12:36:39;;;;;;;12.85;6.35;;;;;;;;;;4907409;29;20055;-67
2022/03/24 12:39:10;;;;;;;8.57;4.70;;;;;;;;;;4917093;29;20546;-68
2022/03/24 12:42:10;;;;;;;12.43;6.55;;;;;;;;;;4933091;29;20052;-68
2022/03/24 12:44:54;;;;;;;13.05;6.07;;;;;;;;;;4933076;29;20566;-68
2022/03/24 12:47:45;;;;;;;2.03;0.82;;;;;;;;;;4916685;29;20055;-70
2022/03/24 12:50:15;;;;;;;;;;;;;;;;;;4902641;29;20051;-72
2022/03/24 12:52:58;;;;;;;3.03;0.60;;;;;;;;;;4932532;29;19923;-73
2022/03/24 12:55:34;;;;;;;1.67;0.75;;;;;;;;;;4951910;29;20451;-73
2022/03/24 12:58:14;;;;;;;1.38;0.77;;;;;;;;;;4932643;29;20392;-70
2022/03/24 13:00:50;;;;;;;1.17;0.60;;;;;;;;;;4947035;29;20538;-71
2022/03/24 13:03:20;;;;;;;12.00;9.07;;;;;;;;;;4943558;29;20070;-72
2022/03/24 13:05:54;;;;;;;6.35;3.90;;;;;;;;;;4964335;28;20102;-72
2022/03/24 13:08:24;;;;;;;2.75;0.90;;;;;;;;;;4971434;28;20063;-72
2022/03/24 13:11:02;;;;;;;0.75;0.50;;;;;;;;;;4951462;29;20058;-73
2022/03/24 13:13:33;;;;;;;3.33;0.70;;;;;;;;;;4936529;29;20055;-73
2022/03/24 13:16:03;;;;;;;0.90;0.40;;;;;;;;;;4913454;29;20060;-67
2022/03/24 13:18:34;;;;;;;3.13;1.75;;;;;;;;;;4913781;29;20056;-67
2022/03/24 13:21:05;;;;;;;1.92;0.93;;;;;;;;;;4898139;29;20067;-68
2022/03/24 13:23:35;;;;;;;2.88;0.93;;;;;;;;;;4913533;29;20385;-70
2022/03/24 13:26:07;;;;;;;0.50;0.32;;;;;;;;;;4913433;29;20060;-72
2022/03/24 13:28:40;;;;;;;1.17;0.80;;;;;;;;;;4932228;29;20508;-72
2022/03/24 13:31:10;;;;;;;1.30;0.60;;;;;;;;;;4898844;29;20063;-72
2022/03/24 13:33:51;;;;;;;1.77;0.80;;;;;;;;;;4907837;29;20056;-71
2022/03/24 13:36:21;;;;;;;1.30;0.82;;;;;;;;;;4946787;28;20691;-72
2022/03/24 13:38:52;;;;;;;1.20;0.60;;;;;;;;;;4936286;29;20456;-70
2022/03/24 13:41:25;;;;;;;1.73;1.33;;;;;;;;;;4932246;29;20067;-71
2022/03/24 13:43:58;;;;;;;2.83;1.45;;;;;;;;;;4916249;29;20515;-71
2022/03/24 13:46:28;;;;;;;2.85;1.30;;;;;;;;;;4905975;29;20056;-71
2022/03/24 13:48:58;;;;;;;2.08;1.00;;;;;;;;;;4925945;29;20060;-70
2022/03/24 13:51:29;;;;;;;3.05;1.10;;;;;;;;;;4935611;29;20047;-70
2022/03/24 13:54:19;;;;;;;3.00;1.83;;;;;;;;;;4897502;29;20406;-68
2022/03/24 13:56:49;;;;;;;6.10;2.38;;;;;;;;;;4911696;29;20071;-67
2022/03/24 13:59:27;;;;;;;3.03;1.90;;;;;;;;;;4916107;29;20542;-67
2022/03/24 14:01:58;;;;;;;2.55;1.10;;;;;;;;;;4929133;29;20051;-67
2022/03/24 14:04:29;;;;;;;1.23;0.90;;;;;;;;;;4934721;29;20047;-67
2022/03/24 14:07:09;;;;;;;1.55;0.60;;;;;;;;;;4920239;29;20207;-68
2022/03/24 14:09:54;;;;;;;0.65;0.40;;;;;;;;;;4915823;29;20100;-68
2022/03/24 14:12:25;;;;;;;5.15;2.67;;;;;;;;;;4927799;29;20044;-68
2022/03/24 14:14:55;;;;;;;3.88;2.38;;;;;;;;;;4897103;29;20056;-66
2022/03/24 14:17:26;;;;;;;5.10;2.58;;;;;;;;;;4915733;29;20520;-67
2022/03/24 14:19:59;;;;;;;1.80;1.13;;;;;;;;;;4891051;29;20089;-67
2022/03/24 14:22:29;;;;;;;2.17;1.10;;;;;;;;;;4878280;29;20514;-68
2022/03/24 14:25:12;;;;;;;2.83;0.90;;;;;;;;;;4862622;29;20061;-67
2022/03/24 14:27:50;;;;;;;3.00;2.42;;;;;;;;;;4877760;29;20461;-66
2022/03/24 14:30:30;;;;;;;6.80;4.00;;;;;;;;;;4877072;29;20162;-68
2022/03/24 14:33:01;;;;;;;5.15;2.95;;;;;;;;;;4877383;29;20387;-68
2022/03/24 14:35:32;;;;;;;4.13;1.48;;;;;;;;;;4883105;29;20065;-67
2022/03/24 14:38:09;;;;;;;1.77;1.00;;;;;;;;;;4867811;29;20482;-67
2022/03/24 14:40:42;;;;;;;5.05;3.42;;;;;;;;;;4881801;29;20057;-68
2022/03/24 14:43:19;;;;;;;3.88;2.22;;;;;;;;;;4935170;29;20056;-66
2022/03/24 14:45:51;;;;;;;3.40;1.60;;;;;;;;;;4957960;28;20047;-67
2022/03/24 14:48:23;;;;;;;4.90;1.70;;;;;;;;;;4924906;29;20058;-68
2022/03/24 14:50:53;;;;;;;2.05;1.20;;;;;;;;;;4969404;28;20055;-69
2022/03/24 14:53:26;;;;;;;2.00;1.00;;;;;;;;;;4972537;28;20510;-68
2022/03/24 14:55:56;;;;;;;2.30;1.40;;;;;;;;;;4956945;28;20047;-67
2022/03/24 14:58:27;;;;;;;1.77;1.13;;;;;;;;;;4934099;29;20051;-68
2022/03/24 15:00:58;;;;;;;2.83;1.45;;;;;;;;;;4917824;29;20063;-68
2022/03/24 15:03:29;;;;;;;2.97;1.40;;;;;;;;;;4915163;29;20496;-69
2022/03/24 15:06:00;;;;;;;1.88;1.30;;;;;;;;;;4895902;29;20415;-68
2022/03/24 15:08:32;;;;;;;1.30;0.80;;;;;;;;;;4896300;29;20060;-67
2022/03/24 15:11:09;;;;;;;2.40;0.80;;;;;;;;;;4853834;29;20758;-68
2022/03/24 15:16:36;;;;;;;0.80;0.55;;;;;;;;;;4874761;29;20060;-66
2022/03/24 15:19:50;;;;;;;1.20;0.90;;;;;;;;;;4877394;29;20081;-67
2022/03/24 15:22:27;;;;;;;6.43;3.00;;;;;;;;;;4914265;29;20059;-67
2022/03/24 15:25:36;;;;;;;3.17;1.45;;;;;;;;;;4930837;29;20058;-69
2022/03/24 15:28:30;;;;;;;2.38;1.33;;;;;;;;;;4886551;29;20521;-69